Huvudsida
METAR-TAF:

METAR-TAF

Flygplatser :

RAF Benson

Benson, England

latitud: 51-37N, longitud: 001-05W, höjd: 63 m

Aktuellt väderrapport

Denna rapport gjordes för 1 timme och 19 minuter sedan, klockan 14:50 UTC
Vind 21 kt från nordost i byarna ända upp till 31 kt
Temperatur 8°C
Fuktighet 42%
Tryck 1038 hPa
Sikt 10 km eller mer

METAR: EGUB 291450Z AUTO 04021G31KT 9999 // BKN050/// 08/M04 Q1038

Tid: 17:09 (16:09 UTC)


TAF: saknas

Aktuella väderrapporter och prognoser från 4000 flygplatser (METAR- och TAF-rapporter).

De tillgängliga stationerna syns som gula och röda prickar på kartan.

För musen över prickarna för att se namnen på stationerna.

Klicka sedan för att få väderrapporter och prognoser.

För att ändra kartan: Klicka på de gröna knapparna med ett svart kors på för att zooma in; den gröna knappen med ett streck på för att zooma ut; eller på de gröna pilarna för angränsande kartor.


METAR-TAF: